createdAt,value
2023-05-05T00:03:31.648Z,99331.84
2023-05-05T00:08:34.611Z,99328.56
2023-05-05T00:13:39.831Z,99321.06
2023-05-05T00:18:42.720Z,99314.41
2023-05-05T00:23:45.648Z,99317.56
2023-05-05T00:28:50.443Z,99310.28
2023-05-05T00:33:53.377Z,99305.47
2023-05-05T00:38:56.288Z,99291.41
2023-05-05T00:44:00.742Z,99289.94
2023-05-05T00:49:03.791Z,99290.50
2023-05-05T00:54:07.401Z,99281.22
2023-05-05T00:59:11.663Z,99269.50
2023-05-05T01:04:14.666Z,99270.66
2023-05-05T01:09:29.135Z,99280.69
2023-05-05T01:14:40.875Z,99278.06
2023-05-05T01:20:02.118Z,99277.19
2023-05-05T01:25:30.332Z,99274.34
2023-05-05T01:30:58.816Z,99279.38
2023-05-05T01:36:08.332Z,99279.16
2023-05-05T01:41:16.034Z,99280.91
2023-05-05T01:46:21.074Z,99276.34
2023-05-05T01:51:28.249Z,99273.56
2023-05-05T01:56:33.447Z,99273.34
2023-05-05T02:01:41.541Z,99268.28
2023-05-05T02:06:47.581Z,99264.19
2023-05-05T02:11:50.709Z,99251.53
2023-05-05T02:16:56.400Z,99245.31
2023-05-05T02:22:01.067Z,99247.22
2023-05-05T02:27:07.181Z,99238.59
2023-05-05T02:32:13.622Z,99232.72
2023-05-05T02:37:22.612Z,99234.19
2023-05-05T02:42:35.048Z,99242.72
2023-05-05T02:47:39.872Z,99233.94
2023-05-05T02:52:45.739Z,99245.72
2023-05-05T02:57:58.005Z,99234.06
2023-05-05T03:03:13.954Z,99246.50
2023-05-05T03:08:29.393Z,99247.06
2023-05-05T03:13:35.657Z,99244.31
2023-05-05T03:18:42.321Z,99242.44
2023-05-05T03:23:46.802Z,99242.31
2023-05-05T03:28:55.714Z,99238.78
2023-05-05T03:34:06.105Z,99239.97
2023-05-05T03:39:15.993Z,99242.06
2023-05-05T03:44:19.135Z,99246.81
2023-05-05T03:49:22.559Z,99246.19
2023-05-05T03:54:28.110Z,99246.41
2023-05-05T03:59:31.291Z,99249.28
2023-05-05T04:04:34.512Z,99244.66
2023-05-05T04:09:44.241Z,99246.03
2023-05-05T04:14:48.070Z,99253.56
2023-05-05T04:19:51.468Z,99262.31
2023-05-05T04:24:56.069Z,99247.38
2023-05-05T04:29:59.272Z,99251.63
2023-05-05T04:35:02.415Z,99248.69
2023-05-05T04:40:09.327Z,99263.56
2023-05-05T04:45:13.576Z,99257.72
2023-05-05T04:50:17.249Z,99268.63
2023-05-05T04:55:21.879Z,99259.34
2023-05-05T05:00:25.115Z,99267.13
2023-05-05T05:05:29.256Z,99264.81
2023-05-05T05:10:33.631Z,99258.25
2023-05-05T05:15:38.070Z,99264.44
2023-05-05T05:20:41.410Z,99268.06
2023-05-05T05:25:46.999Z,99261.63
2023-05-05T05:30:52.632Z,99266.84
2023-05-05T05:35:56.321Z,99265.81
2023-05-05T05:41:00.571Z,99273.13
2023-05-05T05:46:03.596Z,99261.84
2023-05-05T05:51:06.798Z,99265.84
2023-05-05T05:56:11.714Z,99271.47
2023-05-05T06:01:15.999Z,99273.13
2023-05-05T06:06:20.044Z,99270.91
2023-05-05T06:11:24.392Z,99259.16
2023-05-05T06:16:27.465Z,99267.59
2023-05-05T06:21:31.508Z,99273.28
2023-05-05T06:26:35.874Z,99261.97
2023-05-05T06:31:38.769Z,99269.81
2023-05-05T06:36:41.739Z,99270.06
2023-05-05T06:41:46.162Z,99266.22
2023-05-05T06:46:49.087Z,99264.22
2023-05-05T06:51:52.017Z,99252.63
2023-05-05T06:56:57.576Z,99258.97
2023-05-05T07:02:02.246Z,99244.75
2023-05-05T07:07:05.206Z,99249.59
2023-05-05T07:12:09.762Z,99256.13
2023-05-05T07:17:12.684Z,99253.47
2023-05-05T07:22:15.588Z,99244.00
2023-05-05T07:27:19.891Z,99242.22
2023-05-05T07:32:22.962Z,99236.66
2023-05-05T07:37:25.936Z,99248.09
2023-05-05T07:42:30.231Z,99253.16
2023-05-05T07:47:33.170Z,99255.78
2023-05-05T07:52:46.492Z,99260.28
2023-05-05T07:57:52.389Z,99250.66
2023-05-05T08:02:55.485Z,99258.88
2023-05-05T08:07:58.835Z,99248.22
2023-05-05T08:13:03.157Z,99254.19
2023-05-05T08:18:06.190Z,99253.75
2023-05-05T08:23:09.157Z,99251.13
2023-05-05T08:28:13.477Z,99248.75
2023-05-05T08:33:16.842Z,99246.50
2023-05-05T08:38:20.094Z,99237.31
2023-05-05T08:43:24.395Z,99240.06
2023-05-05T08:48:29.292Z,99241.72
2023-05-05T08:53:42.574Z,99229.94
2023-05-05T08:58:48.334Z,99234.00
2023-05-05T09:03:52.804Z,99227.66
2023-05-05T09:08:57.609Z,99239.13
2023-05-05T09:14:03.903Z,99228.44
2023-05-05T09:19:06.865Z,99226.97
2023-05-05T09:24:11.777Z,99226.00
2023-05-05T09:29:20.226Z,99231.56
2023-05-05T09:34:23.147Z,99216.47
2023-05-05T09:39:26.453Z,99227.78
2023-05-05T09:44:37.874Z,99232.09
2023-05-05T09:49:40.885Z,99224.22
2023-05-05T09:54:44.776Z,99212.47
2023-05-05T09:59:58.495Z,99215.38
2023-05-05T10:05:10.060Z,99208.78
2023-05-05T10:10:14.842Z,99198.56
2023-05-05T10:15:19.658Z,99190.38
2023-05-05T10:20:24.837Z,99187.19
2023-05-05T10:25:31.423Z,99189.59
2023-05-05T10:30:45.234Z,99190.97
2023-05-05T10:35:53.832Z,99177.81
2023-05-05T10:40:58.775Z,99167.56
2023-05-05T10:46:03.454Z,99164.28
2023-05-05T10:51:38.802Z,99158.31
2023-05-05T10:56:43.934Z,99165.88
2023-05-05T11:01:50.708Z,99157.25
2023-05-05T11:07:27.489Z,99154.97
2023-05-05T11:12:31.126Z,99155.94
2023-05-05T11:17:47.073Z,99154.31
2023-05-05T11:23:22.835Z,99136.53
2023-05-05T11:28:29.903Z,99128.00
2023-05-05T11:33:36.887Z,99134.13
2023-05-05T11:39:06.813Z,99122.25
2023-05-05T11:44:11.309Z,99125.47
2023-05-05T11:49:27.854Z,99117.34
2023-05-05T11:54:31.300Z,99115.94
2023-05-05T11:59:34.842Z,99118.56
2023-05-05T12:04:40.736Z,99104.66
2023-05-05T12:09:44.878Z,99099.44
2023-05-05T12:14:51.734Z,99099.00
2023-05-05T12:19:56.428Z,99107.03
2023-05-05T12:25:02.350Z,99111.88
2023-05-05T12:30:16.784Z,99110.28
2023-05-05T12:35:21.923Z,99107.75
2023-05-05T12:40:44.633Z,99107.41
2023-05-05T12:45:47.627Z,99093.22
2023-05-05T12:50:52.304Z,99101.63
2023-05-05T12:55:55.167Z,99093.69
2023-05-05T13:01:10.992Z,99094.25
2023-05-05T13:06:21.774Z,99091.81
2023-05-05T13:11:24.637Z,99090.91
2023-05-05T13:16:27.619Z,99086.50
2023-05-05T13:21:31.876Z,99087.69
2023-05-05T13:26:34.789Z,99069.94
2023-05-05T13:31:37.746Z,99065.63
2023-05-05T13:36:43.008Z,99064.09
2023-05-05T13:41:46.488Z,99054.44
2023-05-05T13:46:49.490Z,99051.16
2023-05-05T13:51:53.765Z,99044.22
2023-05-05T13:56:57.821Z,99041.44
2023-05-05T14:02:01.253Z,99039.56
2023-05-05T14:07:05.548Z,99032.34
2023-05-05T14:12:08.554Z,99030.97
2023-05-05T14:17:11.732Z,99025.38
2023-05-05T14:22:16.655Z,99026.34
2023-05-05T14:27:24.121Z,99028.75
2023-05-05T14:32:27.707Z,99009.59
2023-05-05T14:37:31.932Z,99011.56
2023-05-05T14:42:34.968Z,99012.38
2023-05-05T14:47:38.846Z,99005.94
2023-05-05T14:52:44.586Z,99011.81
2023-05-05T14:57:47.522Z,99000.53
2023-05-05T15:02:50.607Z,98999.78
2023-05-05T15:07:54.922Z,98994.19
2023-05-05T15:12:57.908Z,98992.88
2023-05-05T15:18:00.902Z,98987.72
2023-05-05T15:23:05.276Z,98987.31
2023-05-05T15:28:08.200Z,98992.22
2023-05-05T15:33:11.180Z,98987.84
2023-05-05T15:38:15.438Z,98990.03
2023-05-05T15:43:18.340Z,98981.72
2023-05-05T15:48:21.199Z,98985.66
2023-05-05T15:53:26.731Z,98985.09
2023-05-05T15:58:29.599Z,98974.88
2023-05-05T16:03:32.520Z,98971.50
2023-05-05T16:08:37.174Z,98975.16
2023-05-05T16:13:40.095Z,98960.50
2023-05-05T16:18:43.020Z,98962.78
2023-05-05T16:23:47.481Z,98966.06
2023-05-05T16:28:50.356Z,98968.56
2023-05-05T16:33:54.478Z,98960.81
2023-05-05T16:38:58.776Z,98956.66
2023-05-05T16:44:01.710Z,98958.50
2023-05-05T16:49:04.625Z,98951.47
2023-05-05T16:54:08.882Z,98951.44
2023-05-05T16:59:12.098Z,98947.38
2023-05-05T17:04:15.118Z,98949.72
2023-05-05T17:09:19.354Z,98954.72
2023-05-05T17:14:22.356Z,98956.94
2023-05-05T17:19:25.327Z,98948.41
2023-05-05T17:24:29.656Z,98944.88
2023-05-05T17:29:36.799Z,98948.47
2023-05-05T17:34:41.082Z,98938.06
2023-05-05T17:39:45.399Z,98944.03
2023-05-05T17:44:48.346Z,98939.34
2023-05-05T17:49:53.759Z,98942.50
2023-05-05T17:54:58.178Z,98940.09
2023-05-05T18:00:04.598Z,98937.47
2023-05-05T18:05:27.525Z,98937.81
2023-05-05T18:10:31.932Z,98940.41
2023-05-05T18:15:34.971Z,98935.72
2023-05-05T18:20:37.900Z,98940.75
2023-05-05T18:25:42.453Z,98946.09
2023-05-05T18:30:45.394Z,98945.44
2023-05-05T18:35:48.329Z,98946.09
2023-05-05T18:40:52.635Z,98951.44
2023-05-05T18:45:55.601Z,98956.75
2023-05-05T18:51:02.231Z,98963.75
2023-05-05T18:56:06.602Z,98970.56
2023-05-05T19:01:09.530Z,98965.63
2023-05-05T19:06:12.589Z,98973.53
2023-05-05T19:11:16.956Z,98973.59
2023-05-05T19:16:20.040Z,98973.59
2023-05-05T19:21:23.398Z,98974.97
2023-05-05T19:26:27.864Z,98977.13
2023-05-05T19:31:31.286Z,98985.94
2023-05-05T19:36:34.954Z,98987.53
2023-05-05T19:41:39.233Z,98977.97
2023-05-05T19:46:42.234Z,98981.72
2023-05-05T19:51:47.522Z,98977.47
2023-05-05T19:56:51.859Z,98974.28
2023-05-05T20:01:54.803Z,98971.34
2023-05-05T20:06:58.039Z,98969.50
2023-05-05T20:12:02.347Z,98965.25
2023-05-05T20:17:05.342Z,98961.28
2023-05-05T20:22:08.345Z,98952.50
2023-05-05T20:27:12.614Z,98946.66
2023-05-05T20:32:15.695Z,98947.97
2023-05-05T20:37:18.599Z,98937.09
2023-05-05T20:42:23.139Z,98940.00
2023-05-05T20:47:26.871Z,98949.53
2023-05-05T20:52:29.914Z,98943.41
2023-05-05T20:57:35.190Z,98942.88
2023-05-05T21:02:38.396Z,98940.22
2023-05-05T21:07:41.490Z,98932.25
2023-05-05T21:12:45.792Z,98931.94
2023-05-05T21:17:48.827Z,98925.31
2023-05-05T21:22:51.834Z,98916.81
2023-05-05T21:27:56.107Z,98909.69
2023-05-05T21:32:59.994Z,98904.38
2023-05-05T21:38:02.947Z,98908.88
2023-05-05T21:43:07.316Z,98912.28
2023-05-05T21:48:10.334Z,98907.22
2023-05-05T21:53:13.183Z,98915.19
2023-05-05T21:58:17.444Z,98911.75
2023-05-05T22:03:20.446Z,98913.06
2023-05-05T22:08:23.417Z,98900.31
2023-05-05T22:13:27.707Z,98903.69
2023-05-05T22:18:30.592Z,98903.91
2023-05-05T22:23:33.538Z,98899.03
2023-05-05T22:28:38.489Z,98908.41
2023-05-05T22:33:41.375Z,98920.59
2023-05-05T22:38:44.329Z,98929.56
2023-05-05T22:43:49.229Z,98964.88
2023-05-05T22:48:52.885Z,98963.56
2023-05-05T22:53:55.843Z,98991.56
2023-05-05T22:59:00.172Z,98991.78
2023-05-05T23:04:03.097Z,98992.69
2023-05-05T23:09:06.116Z,98990.81
2023-05-05T23:14:10.501Z,98986.13
2023-05-05T23:19:13.555Z,98983.56
2023-05-05T23:24:16.442Z,98980.78
2023-05-05T23:29:20.808Z,98984.34
2023-05-05T23:34:23.690Z,98971.78
2023-05-05T23:39:26.629Z,98971.91
2023-05-05T23:44:31.006Z,98972.91
2023-05-05T23:49:33.907Z,98973.00
2023-05-05T23:54:36.775Z,98963.75
2023-05-05T23:59:41.576Z,98959.28
